sensor_id;sensor_type;location;lat;lon;timestamp;temperature;humidity
36652;DHT22;53334;51.976;20.144;2022-11-15T00:00:14;25.60;53.30
36652;DHT22;53334;51.976;20.144;2022-11-15T00:03:07;25.70;53.70
36652;DHT22;53334;51.976;20.144;2022-11-15T00:06:02;25.60;53.90
36652;DHT22;53334;51.976;20.144;2022-11-15T00:08:57;25.60;53.50
36652;DHT22;53334;51.976;20.144;2022-11-15T00:11:51;25.60;53.20
36652;DHT22;53334;51.976;20.144;2022-11-15T00:14:44;25.60;53.10
36652;DHT22;53334;51.976;20.144;2022-11-15T00:17:38;25.50;52.90
36652;DHT22;53334;51.976;20.144;2022-11-15T00:20:33;25.50;53.00
36652;DHT22;53334;51.976;20.144;2022-11-15T00:23:25;25.50;53.00
36652;DHT22;53334;51.976;20.144;2022-11-15T00:26:18;25.50;53.10
36652;DHT22;53334;51.976;20.144;2022-11-15T00:29:11;25.50;52.90
36652;DHT22;53334;51.976;20.144;2022-11-15T00:32:04;25.50;53.00
36652;DHT22;53334;51.976;20.144;2022-11-15T00:34:58;25.50;53.10
36652;DHT22;53334;51.976;20.144;2022-11-15T00:37:52;25.50;53.30
36652;DHT22;53334;51.976;20.144;2022-11-15T00:40:44;25.40;53.30
36652;DHT22;53334;51.976;20.144;2022-11-15T00:43:37;25.40;53.30
36652;DHT22;53334;51.976;20.144;2022-11-15T00:46:30;25.50;53.40
36652;DHT22;53334;51.976;20.144;2022-11-15T00:49:23;25.40;53.30
36652;DHT22;53334;51.976;20.144;2022-11-15T00:52:17;25.40;53.30
36652;DHT22;53334;51.976;20.144;2022-11-15T00:55:13;25.40;53.30
36652;DHT22;53334;51.976;20.144;2022-11-15T00:58:07;25.40;53.10
36652;DHT22;53334;51.976;20.144;2022-11-15T01:01:06;25.40;53.30
36652;DHT22;53334;51.976;20.144;2022-11-15T01:03:59;25.40;53.40
36652;DHT22;53334;51.976;20.144;2022-11-15T01:06:51;25.40;53.40
36652;DHT22;53334;51.976;20.144;2022-11-15T01:09:45;25.40;53.50
36652;DHT22;53334;51.976;20.144;2022-11-15T01:12:38;25.30;53.80
36652;DHT22;53334;51.976;20.144;2022-11-15T01:15:30;25.30;54.50
36652;DHT22;53334;51.976;20.144;2022-11-15T01:18:23;25.30;55.00
36652;DHT22;53334;51.976;20.144;2022-11-15T01:21:17;25.30;55.10
36652;DHT22;53334;51.976;20.144;2022-11-15T01:24:12;25.30;55.10
36652;DHT22;53334;51.976;20.144;2022-11-15T01:27:06;25.30;55.10
36652;DHT22;53334;51.976;20.144;2022-11-15T01:29:59;25.30;54.90
36652;DHT22;53334;51.976;20.144;2022-11-15T01:32:51;25.30;55.10
36652;DHT22;53334;51.976;20.144;2022-11-15T01:35:43;25.30;55.30
36652;DHT22;53334;51.976;20.144;2022-11-15T01:38:36;25.30;55.20
36652;DHT22;53334;51.976;20.144;2022-11-15T01:41:30;25.30;55.30
36652;DHT22;53334;51.976;20.144;2022-11-15T01:44:40;25.30;55.30
36652;DHT22;53334;51.976;20.144;2022-11-15T01:47:36;25.30;55.40
36652;DHT22;53334;51.976;20.144;2022-11-15T01:50:31;25.30;55.20
36652;DHT22;53334;51.976;20.144;2022-11-15T01:53:25;25.30;55.30
36652;DHT22;53334;51.976;20.144;2022-11-15T01:56:19;25.30;55.40
36652;DHT22;53334;51.976;20.144;2022-11-15T01:59:12;25.30;55.50
36652;DHT22;53334;51.976;20.144;2022-11-15T02:02:06;25.30;55.50
36652;DHT22;53334;51.976;20.144;2022-11-15T02:04:59;25.30;55.50
36652;DHT22;53334;51.976;20.144;2022-11-15T02:07:51;25.30;55.50
36652;DHT22;53334;51.976;20.144;2022-11-15T02:10:44;25.30;55.40
36652;DHT22;53334;51.976;20.144;2022-11-15T02:13:37;25.30;55.50
36652;DHT22;53334;51.976;20.144;2022-11-15T02:16:35;25.30;55.50
36652;DHT22;53334;51.976;20.144;2022-11-15T02:23:47;25.30;55.80
36652;DHT22;53334;51.976;20.144;2022-11-15T02:30:23;25.30;56.00
36652;DHT22;53334;51.976;20.144;2022-11-15T02:33:27;25.30;55.90
36652;DHT22;53334;51.976;20.144;2022-11-15T02:36:36;25.30;55.90
36652;DHT22;53334;51.976;20.144;2022-11-15T02:39:35;25.20;56.00
36652;DHT22;53334;51.976;20.144;2022-11-15T02:42:33;25.20;55.90
36652;DHT22;53334;51.976;20.144;2022-11-15T02:45:50;25.20;55.90
36652;DHT22;53334;51.976;20.144;2022-11-15T02:48:45;25.30;56.00
36652;DHT22;53334;51.976;20.144;2022-11-15T02:51:38;25.30;56.00
36652;DHT22;53334;51.976;20.144;2022-11-15T02:54:33;25.30;56.00
36652;DHT22;53334;51.976;20.144;2022-11-15T02:57:36;25.20;56.00
36652;DHT22;53334;51.976;20.144;2022-11-15T03:00:35;25.30;56.10
36652;DHT22;53334;51.976;20.144;2022-11-15T03:03:40;25.20;56.00
36652;DHT22;53334;51.976;20.144;2022-11-15T03:06:43;25.30;56.10
36652;DHT22;53334;51.976;20.144;2022-11-15T03:09:42;25.30;56.20
36652;DHT22;53334;51.976;20.144;2022-11-15T03:12:42;25.20;56.10
36652;DHT22;53334;51.976;20.144;2022-11-15T03:16:01;25.30;56.20
36652;DHT22;53334;51.976;20.144;2022-11-15T03:19:02;25.30;56.20
36652;DHT22;53334;51.976;20.144;2022-11-15T03:21:56;25.30;56.20
36652;DHT22;53334;51.976;20.144;2022-11-15T03:24:54;25.20;56.20
36652;DHT22;53334;51.976;20.144;2022-11-15T03:27:51;25.30;56.30
36652;DHT22;53334;51.976;20.144;2022-11-15T03:30:45;25.30;56.30
36652;DHT22;53334;51.976;20.144;2022-11-15T03:33:40;25.20;56.30
36652;DHT22;53334;51.976;20.144;2022-11-15T03:36:35;25.20;56.30
36652;DHT22;53334;51.976;20.144;2022-11-15T03:39:29;25.20;56.30
36652;DHT22;53334;51.976;20.144;2022-11-15T03:42:25;25.30;56.30
36652;DHT22;53334;51.976;20.144;2022-11-15T03:45:23;25.30;56.30
36652;DHT22;53334;51.976;20.144;2022-11-15T03:48:20;25.20;56.30
36652;DHT22;53334;51.976;20.144;2022-11-15T03:51:13;25.20;56.80
36652;DHT22;53334;51.976;20.144;2022-11-15T03:54:08;25.30;56.40
36652;DHT22;53334;51.976;20.144;2022-11-15T03:57:00;25.30;56.40
36652;DHT22;53334;51.976;20.144;2022-11-15T03:59:53;25.20;56.40
36652;DHT22;53334;51.976;20.144;2022-11-15T04:02:46;25.30;56.50
36652;DHT22;53334;51.976;20.144;2022-11-15T04:05:38;25.20;56.50
36652;DHT22;53334;51.976;20.144;2022-11-15T04:08:31;25.30;56.60
36652;DHT22;53334;51.976;20.144;2022-11-15T04:11:24;25.30;56.70
36652;DHT22;53334;51.976;20.144;2022-11-15T04:14:17;25.30;56.80
36652;DHT22;53334;51.976;20.144;2022-11-15T04:17:09;25.30;56.80
36652;DHT22;53334;51.976;20.144;2022-11-15T04:20:03;25.20;56.70
36652;DHT22;53334;51.976;20.144;2022-11-15T04:23:14;25.30;56.80
36652;DHT22;53334;51.976;20.144;2022-11-15T04:26:26;25.30;56.90
36652;DHT22;53334;51.976;20.144;2022-11-15T04:29:18;25.30;56.90
36652;DHT22;53334;51.976;20.144;2022-11-15T04:32:26;25.20;56.80
36652;DHT22;53334;51.976;20.144;2022-11-15T04:35:18;25.20;56.90
36652;DHT22;53334;51.976;20.144;2022-11-15T04:38:11;25.30;56.90
36652;DHT22;53334;51.976;20.144;2022-11-15T04:41:04;25.20;56.80
36652;DHT22;53334;51.976;20.144;2022-11-15T04:43:58;25.30;57.00
36652;DHT22;53334;51.976;20.144;2022-11-15T04:46:50;25.30;57.00
36652;DHT22;53334;51.976;20.144;2022-11-15T04:49:42;25.20;56.90
36652;DHT22;53334;51.976;20.144;2022-11-15T04:52:35;25.30;57.00
36652;DHT22;53334;51.976;20.144;2022-11-15T04:55:27;25.20;56.90
36652;DHT22;53334;51.976;20.144;2022-11-15T04:58:20;25.20;56.90
36652;DHT22;53334;51.976;20.144;2022-11-15T05:01:14;25.30;57.00
36652;DHT22;53334;51.976;20.144;2022-11-15T05:04:06;25.30;57.00
36652;DHT22;53334;51.976;20.144;2022-11-15T05:07:11;25.20;57.00
36652;DHT22;53334;51.976;20.144;2022-11-15T05:10:04;25.20;56.80
36652;DHT22;53334;51.976;20.144;2022-11-15T05:12:57;25.20;56.80
36652;DHT22;53334;51.976;20.144;2022-11-15T05:15:49;25.20;57.00
36652;DHT22;53334;51.976;20.144;2022-11-15T05:18:43;25.20;56.80
36652;DHT22;53334;51.976;20.144;2022-11-15T05:21:36;25.20;56.70
36652;DHT22;53334;51.976;20.144;2022-11-15T05:24:29;25.30;56.80
36652;DHT22;53334;51.976;20.144;2022-11-15T05:27:21;25.30;56.70
36652;DHT22;53334;51.976;20.144;2022-11-15T05:30:14;25.30;56.80
36652;DHT22;53334;51.976;20.144;2022-11-15T05:33:07;25.30;56.70
36652;DHT22;53334;51.976;20.144;2022-11-15T05:36:05;25.20;56.70
36652;DHT22;53334;51.976;20.144;2022-11-15T05:38:59;25.30;56.70
36652;DHT22;53334;51.976;20.144;2022-11-15T05:41:55;25.30;56.70
36652;DHT22;53334;51.976;20.144;2022-11-15T05:44:49;25.30;56.60
36652;DHT22;53334;51.976;20.144;2022-11-15T05:47:42;25.30;56.60
36652;DHT22;53334;51.976;20.144;2022-11-15T05:50:37;25.30;56.70
36652;DHT22;53334;51.976;20.144;2022-11-15T05:53:32;25.30;56.70
36652;DHT22;53334;51.976;20.144;2022-11-15T05:56:25;25.30;56.70
36652;DHT22;53334;51.976;20.144;2022-11-15T05:59:17;25.30;57.00
36652;DHT22;53334;51.976;20.144;2022-11-15T06:02:10;25.30;56.80
36652;DHT22;53334;51.976;20.144;2022-11-15T06:05:04;25.30;56.80
36652;DHT22;53334;51.976;20.144;2022-11-15T06:07:57;25.30;56.90
36652;DHT22;53334;51.976;20.144;2022-11-15T06:10:51;25.30;56.80
36652;DHT22;53334;51.976;20.144;2022-11-15T06:13:44;25.30;56.90
36652;DHT22;53334;51.976;20.144;2022-11-15T06:16:37;25.40;57.00
36652;DHT22;53334;51.976;20.144;2022-11-15T06:19:29;25.40;56.80
36652;DHT22;53334;51.976;20.144;2022-11-15T06:22:25;25.40;56.90
36652;DHT22;53334;51.976;20.144;2022-11-15T06:25:18;25.40;57.00
36652;DHT22;53334;51.976;20.144;2022-11-15T06:28:11;25.30;56.60
36652;DHT22;53334;51.976;20.144;2022-11-15T06:31:05;25.40;56.90
36652;DHT22;53334;51.976;20.144;2022-11-15T06:33:58;25.40;56.90
36652;DHT22;53334;51.976;20.144;2022-11-15T06:36:51;25.40;56.80
36652;DHT22;53334;51.976;20.144;2022-11-15T06:39:44;25.40;56.30
36652;DHT22;53334;51.976;20.144;2022-11-15T06:42:36;25.40;55.90
36652;DHT22;53334;51.976;20.144;2022-11-15T06:45:31;25.30;55.60
36652;DHT22;53334;51.976;20.144;2022-11-15T06:48:23;25.30;55.90
36652;DHT22;53334;51.976;20.144;2022-11-15T06:51:16;25.30;56.40
36652;DHT22;53334;51.976;20.144;2022-11-15T06:54:08;25.30;56.50
36652;DHT22;53334;51.976;20.144;2022-11-15T06:57:01;25.30;56.60
36652;DHT22;53334;51.976;20.144;2022-11-15T06:59:54;25.40;56.50
36652;DHT22;53334;51.976;20.144;2022-11-15T07:02:48;25.40;56.30
36652;DHT22;53334;51.976;20.144;2022-11-15T07:05:41;25.40;56.20
36652;DHT22;53334;51.976;20.144;2022-11-15T07:08:34;25.40;55.70
36652;DHT22;53334;51.976;20.144;2022-11-15T07:11:27;25.40;55.10
36652;DHT22;53334;51.976;20.144;2022-11-15T07:14:20;25.40;54.50
36652;DHT22;53334;51.976;20.144;2022-11-15T07:17:13;25.30;54.20
36652;DHT22;53334;51.976;20.144;2022-11-15T07:20:07;25.30;53.90
36652;DHT22;53334;51.976;20.144;2022-11-15T07:23:00;25.30;53.60
36652;DHT22;53334;51.976;20.144;2022-11-15T07:25:53;25.30;53.40
36652;DHT22;53334;51.976;20.144;2022-11-15T07:28:46;25.30;53.30
36652;DHT22;53334;51.976;20.144;2022-11-15T07:31:38;25.30;53.10
36652;DHT22;53334;51.976;20.144;2022-11-15T07:34:31;25.30;53.00
36652;DHT22;53334;51.976;20.144;2022-11-15T07:37:25;25.30;52.90
36652;DHT22;53334;51.976;20.144;2022-11-15T07:40:18;25.30;52.80
36652;DHT22;53334;51.976;20.144;2022-11-15T07:43:10;25.20;53.40
36652;DHT22;53334;51.976;20.144;2022-11-15T07:46:05;25.20;53.30
36652;DHT22;53334;51.976;20.144;2022-11-15T07:49:00;25.20;53.80
36652;DHT22;53334;51.976;20.144;2022-11-15T07:51:52;25.20;53.40
36652;DHT22;53334;51.976;20.144;2022-11-15T07:54:46;25.20;53.40
36652;DHT22;53334;51.976;20.144;2022-11-15T07:57:39;25.20;53.30
36652;DHT22;53334;51.976;20.144;2022-11-15T08:00:32;25.20;53.30
36652;DHT22;53334;51.976;20.144;2022-11-15T08:03:24;25.20;53.30
36652;DHT22;53334;51.976;20.144;2022-11-15T08:06:17;25.20;53.00
36652;DHT22;53334;51.976;20.144;2022-11-15T08:09:10;25.20;52.90
36652;DHT22;53334;51.976;20.144;2022-11-15T08:12:04;25.20;52.80
36652;DHT22;53334;51.976;20.144;2022-11-15T08:14:57;25.20;52.70
36652;DHT22;53334;51.976;20.144;2022-11-15T08:17:54;25.20;52.90
36652;DHT22;53334;51.976;20.144;2022-11-15T08:20:46;25.20;52.70
36652;DHT22;53334;51.976;20.144;2022-11-15T08:23:38;25.30;52.70
36652;DHT22;53334;51.976;20.144;2022-11-15T08:26:31;25.20;52.70
36652;DHT22;53334;51.976;20.144;2022-11-15T08:29:24;25.20;52.70
36652;DHT22;53334;51.976;20.144;2022-11-15T08:32:17;25.20;52.60
36652;DHT22;53334;51.976;20.144;2022-11-15T08:35:10;25.20;52.50
36652;DHT22;53334;51.976;20.144;2022-11-15T08:38:02;25.20;52.40
36652;DHT22;53334;51.976;20.144;2022-11-15T08:41:00;25.20;52.30
36652;DHT22;53334;51.976;20.144;2022-11-15T08:43:53;25.20;52.20
36652;DHT22;53334;51.976;20.144;2022-11-15T08:46:47;25.20;52.00
36652;DHT22;53334;51.976;20.144;2022-11-15T08:49:40;25.20;52.10
36652;DHT22;53334;51.976;20.144;2022-11-15T08:52:33;25.20;51.90
36652;DHT22;53334;51.976;20.144;2022-11-15T08:55:26;25.20;51.70
36652;DHT22;53334;51.976;20.144;2022-11-15T08:58:18;25.20;51.50
36652;DHT22;53334;51.976;20.144;2022-11-15T09:01:16;25.20;51.50
36652;DHT22;53334;51.976;20.144;2022-11-15T09:04:10;25.20;51.50
36652;DHT22;53334;51.976;20.144;2022-11-15T09:07:03;25.20;51.70
36652;DHT22;53334;51.976;20.144;2022-11-15T09:09:56;25.20;51.70
36652;DHT22;53334;51.976;20.144;2022-11-15T09:12:48;25.20;51.70
36652;DHT22;53334;51.976;20.144;2022-11-15T09:15:41;25.20;51.60
36652;DHT22;53334;51.976;20.144;2022-11-15T09:18:34;25.20;51.90
36652;DHT22;53334;51.976;20.144;2022-11-15T09:21:28;25.20;51.90
36652;DHT22;53334;51.976;20.144;2022-11-15T09:24:21;25.20;52.00
36652;DHT22;53334;51.976;20.144;2022-11-15T09:27:13;25.20;50.20
36652;DHT22;53334;51.976;20.144;2022-11-15T09:30:06;25.10;43.30
36652;DHT22;53334;51.976;20.144;2022-11-15T09:33:06;25.00;41.80
36652;DHT22;53334;51.976;20.144;2022-11-15T09:36:03;24.90;42.50
36652;DHT22;53334;51.976;20.144;2022-11-15T09:38:57;24.80;42.70
36652;DHT22;53334;51.976;20.144;2022-11-15T09:41:58;24.80;43.40
36652;DHT22;53334;51.976;20.144;2022-11-15T09:45:06;24.80;43.70
36652;DHT22;53334;51.976;20.144;2022-11-15T09:51:22;24.80;44.80
36652;DHT22;53334;51.976;20.144;2022-11-15T09:54:05;24.80;45.00
36652;DHT22;53334;51.976;20.144;2022-11-15T09:57:09;24.80;45.30
36652;DHT22;53334;51.976;20.144;2022-11-15T09:59:58;24.80;45.60
36652;DHT22;53334;51.976;20.144;2022-11-15T10:03:09;24.90;46.20
36652;DHT22;53334;51.976;20.144;2022-11-15T10:05:45;24.90;46.50
36652;DHT22;53334;51.976;20.144;2022-11-15T10:08:33;24.90;46.70
36652;DHT22;53334;51.976;20.144;2022-11-15T10:11:11;25.00;47.10
36652;DHT22;53334;51.976;20.144;2022-11-15T10:14:11;25.00;46.80
36652;DHT22;53334;51.976;20.144;2022-11-15T10:17:11;25.00;47.00
36652;DHT22;53334;51.976;20.144;2022-11-15T10:19:55;25.00;47.20
36652;DHT22;53334;51.976;20.144;2022-11-15T10:22:40;25.00;47.00
36652;DHT22;53334;51.976;20.144;2022-11-15T10:25:23;25.00;47.00
36652;DHT22;53334;51.976;20.144;2022-11-15T10:28:09;25.00;46.80
36652;DHT22;53334;51.976;20.144;2022-11-15T10:30:47;25.00;46.70
36652;DHT22;53334;51.976;20.144;2022-11-15T10:33:36;25.10;46.60
36652;DHT22;53334;51.976;20.144;2022-11-15T10:36:16;25.00;46.60
36652;DHT22;53334;51.976;20.144;2022-11-15T10:38:56;25.00;46.60
36652;DHT22;53334;51.976;20.144;2022-11-15T10:41:35;25.00;46.40
36652;DHT22;53334;51.976;20.144;2022-11-15T10:44:28;25.10;46.30
36652;DHT22;53334;51.976;20.144;2022-11-15T10:47:26;25.10;46.30
36652;DHT22;53334;51.976;20.144;2022-11-15T10:50:26;25.10;46.50
36652;DHT22;53334;51.976;20.144;2022-11-15T10:53:01;25.10;46.60
36652;DHT22;53334;51.976;20.144;2022-11-15T10:55:36;25.10;46.10
36652;DHT22;53334;51.976;20.144;2022-11-15T10:58:22;25.10;46.10
36652;DHT22;53334;51.976;20.144;2022-11-15T11:01:15;25.10;45.80
36652;DHT22;53334;51.976;20.144;2022-11-15T11:03:59;25.10;46.40
36652;DHT22;53334;51.976;20.144;2022-11-15T11:06:46;25.10;45.60
36652;DHT22;53334;51.976;20.144;2022-11-15T11:09:27;25.10;46.00
36652;DHT22;53334;51.976;20.144;2022-11-15T11:12:02;25.10;45.90
36652;DHT22;53334;51.976;20.144;2022-11-15T11:14:38;25.10;45.90
36652;DHT22;53334;51.976;20.144;2022-11-15T11:17:22;25.10;45.90
36652;DHT22;53334;51.976;20.144;2022-11-15T11:20:02;25.10;45.90
36652;DHT22;53334;51.976;20.144;2022-11-15T11:25:35;25.20;46.20
36652;DHT22;53334;51.976;20.144;2022-11-15T11:28:21;25.20;46.10
36652;DHT22;53334;51.976;20.144;2022-11-15T11:31:06;25.20;46.40
36652;DHT22;53334;51.976;20.144;2022-11-15T11:33:50;25.20;46.30
36652;DHT22;53334;51.976;20.144;2022-11-15T11:36:39;25.20;46.50
36652;DHT22;53334;51.976;20.144;2022-11-15T11:39:21;25.20;46.50
36652;DHT22;53334;51.976;20.144;2022-11-15T11:42:00;25.20;46.70
36652;DHT22;53334;51.976;20.144;2022-11-15T11:44:46;25.20;46.90
36652;DHT22;53334;51.976;20.144;2022-11-15T11:47:24;25.20;47.00
36652;DHT22;53334;51.976;20.144;2022-11-15T11:50:11;25.20;46.90
36652;DHT22;53334;51.976;20.144;2022-11-15T11:52:56;25.20;47.20
36652;DHT22;53334;51.976;20.144;2022-11-15T11:55:37;25.20;47.20
36652;DHT22;53334;51.976;20.144;2022-11-15T11:58:16;25.20;47.10
36652;DHT22;53334;51.976;20.144;2022-11-15T12:00:54;25.20;47.90
36652;DHT22;53334;51.976;20.144;2022-11-15T12:03:34;25.10;47.20
36652;DHT22;53334;51.976;20.144;2022-11-15T12:06:31;25.20;47.30
36652;DHT22;53334;51.976;20.144;2022-11-15T12:09:13;25.20;47.50
36652;DHT22;53334;51.976;20.144;2022-11-15T12:11:54;25.20;47.20
36652;DHT22;53334;51.976;20.144;2022-11-15T12:14:32;25.20;47.00
36652;DHT22;53334;51.976;20.144;2022-11-15T12:17:10;25.20;46.90
36652;DHT22;53334;51.976;20.144;2022-11-15T12:19:45;25.20;46.50
36652;DHT22;53334;51.976;20.144;2022-11-15T12:22:22;25.20;46.40
36652;DHT22;53334;51.976;20.144;2022-11-15T12:25:02;25.20;46.10
36652;DHT22;53334;51.976;20.144;2022-11-15T12:27:40;25.20;46.20
36652;DHT22;53334;51.976;20.144;2022-11-15T12:30:17;25.20;46.00
36652;DHT22;53334;51.976;20.144;2022-11-15T12:32:54;25.20;45.70
36652;DHT22;53334;51.976;20.144;2022-11-15T12:35:34;25.20;45.40
36652;DHT22;53334;51.976;20.144;2022-11-15T12:41:24;25.20;45.40
36652;DHT22;53334;51.976;20.144;2022-11-15T12:43:59;25.20;45.20
36652;DHT22;53334;51.976;20.144;2022-11-15T12:49:48;25.20;45.50
36652;DHT22;53334;51.976;20.144;2022-11-15T12:52:22;25.20;45.80
36652;DHT22;53334;51.976;20.144;2022-11-15T12:54:59;25.20;45.00
36652;DHT22;53334;51.976;20.144;2022-11-15T12:57:37;25.20;44.90
36652;DHT22;53334;51.976;20.144;2022-11-15T13:00:42;25.20;44.90
36652;DHT22;53334;51.976;20.144;2022-11-15T13:03:24;25.20;45.10
36652;DHT22;53334;51.976;20.144;2022-11-15T13:06:08;25.20;44.80
36652;DHT22;53334;51.976;20.144;2022-11-15T13:08:46;25.20;44.20
36652;DHT22;53334;51.976;20.144;2022-11-15T13:11:52;25.20;44.60
36652;DHT22;53334;51.976;20.144;2022-11-15T13:14:50;25.20;45.40
36652;DHT22;53334;51.976;20.144;2022-11-15T13:17:32;25.20;44.80
36652;DHT22;53334;51.976;20.144;2022-11-15T13:20:22;25.20;45.40
36652;DHT22;53334;51.976;20.144;2022-11-15T13:23:02;25.20;45.30
36652;DHT22;53334;51.976;20.144;2022-11-15T13:25:54;25.20;45.00
36652;DHT22;53334;51.976;20.144;2022-11-15T13:28:36;25.20;45.20
36652;DHT22;53334;51.976;20.144;2022-11-15T13:31:29;25.20;45.10
36652;DHT22;53334;51.976;20.144;2022-11-15T13:37:30;25.20;45.10
36652;DHT22;53334;51.976;20.144;2022-11-15T13:40:20;25.20;44.90
36652;DHT22;53334;51.976;20.144;2022-11-15T13:42:55;25.20;44.90
36652;DHT22;53334;51.976;20.144;2022-11-15T13:45:31;25.20;44.40
36652;DHT22;53334;51.976;20.144;2022-11-15T13:48:08;25.20;44.40
36652;DHT22;53334;51.976;20.144;2022-11-15T13:50:42;25.20;44.30
36652;DHT22;53334;51.976;20.144;2022-11-15T13:53:16;25.20;44.20
36652;DHT22;53334;51.976;20.144;2022-11-15T13:55:50;25.20;43.70
36652;DHT22;53334;51.976;20.144;2022-11-15T13:58:25;25.20;43.60
36652;DHT22;53334;51.976;20.144;2022-11-15T14:01:02;25.20;43.70
36652;DHT22;53334;51.976;20.144;2022-11-15T14:03:46;25.20;43.80
36652;DHT22;53334;51.976;20.144;2022-11-15T14:06:22;25.20;44.20
36652;DHT22;53334;51.976;20.144;2022-11-15T14:09:15;25.20;44.00
36652;DHT22;53334;51.976;20.144;2022-11-15T14:11:52;25.20;44.00
36652;DHT22;53334;51.976;20.144;2022-11-15T14:14:27;25.20;43.70
36652;DHT22;53334;51.976;20.144;2022-11-15T14:17:03;25.20;43.30
36652;DHT22;53334;51.976;20.144;2022-11-15T14:19:39;25.20;43.50
36652;DHT22;53334;51.976;20.144;2022-11-15T14:22:18;25.20;43.60
36652;DHT22;53334;51.976;20.144;2022-11-15T14:25:21;25.20;43.90
36652;DHT22;53334;51.976;20.144;2022-11-15T14:28:14;25.20;45.00
36652;DHT22;53334;51.976;20.144;2022-11-15T14:30:50;25.20;45.10
36652;DHT22;53334;51.976;20.144;2022-11-15T14:33:28;25.20;44.80
36652;DHT22;53334;51.976;20.144;2022-11-15T14:36:04;25.20;45.00
36652;DHT22;53334;51.976;20.144;2022-11-15T14:38:39;25.20;45.00
36652;DHT22;53334;51.976;20.144;2022-11-15T14:41:22;25.10;45.10
36652;DHT22;53334;51.976;20.144;2022-11-15T14:43:56;25.20;45.30
36652;DHT22;53334;51.976;20.144;2022-11-15T14:46:30;25.20;45.40
36652;DHT22;53334;51.976;20.144;2022-11-15T14:49:05;25.20;46.00
36652;DHT22;53334;51.976;20.144;2022-11-15T14:51:39;25.20;45.90
36652;DHT22;53334;51.976;20.144;2022-11-15T14:54:14;25.20;46.20
36652;DHT22;53334;51.976;20.144;2022-11-15T14:56:48;25.20;46.30
36652;DHT22;53334;51.976;20.144;2022-11-15T14:59:22;25.20;46.30
36652;DHT22;53334;51.976;20.144;2022-11-15T15:01:56;25.20;46.40
36652;DHT22;53334;51.976;20.144;2022-11-15T15:04:32;25.20;46.70
36652;DHT22;53334;51.976;20.144;2022-11-15T15:07:06;25.20;47.00
36652;DHT22;53334;51.976;20.144;2022-11-15T15:09:41;25.20;47.20
36652;DHT22;53334;51.976;20.144;2022-11-15T15:12:16;25.20;47.50
36652;DHT22;53334;51.976;20.144;2022-11-15T15:14:51;25.20;47.80
36652;DHT22;53334;51.976;20.144;2022-11-15T15:17:25;25.20;47.80
36652;DHT22;53334;51.976;20.144;2022-11-15T15:20:00;25.20;47.90
36652;DHT22;53334;51.976;20.144;2022-11-15T15:22:34;25.20;47.80
36652;DHT22;53334;51.976;20.144;2022-11-15T15:25:23;25.20;47.80
36652;DHT22;53334;51.976;20.144;2022-11-15T15:27:58;25.20;47.80
36652;DHT22;53334;51.976;20.144;2022-11-15T15:30:58;25.20;47.80
36652;DHT22;53334;51.976;20.144;2022-11-15T15:33:32;25.20;47.90
36652;DHT22;53334;51.976;20.144;2022-11-15T15:36:10;25.20;48.10
36652;DHT22;53334;51.976;20.144;2022-11-15T15:38:44;25.20;48.30
36652;DHT22;53334;51.976;20.144;2022-11-15T15:41:19;25.20;48.40
36652;DHT22;53334;51.976;20.144;2022-11-15T15:43:53;25.20;48.40
36652;DHT22;53334;51.976;20.144;2022-11-15T15:46:27;25.20;48.40
36652;DHT22;53334;51.976;20.144;2022-11-15T15:49:00;25.20;48.40
36652;DHT22;53334;51.976;20.144;2022-11-15T15:51:35;25.20;48.40
36652;DHT22;53334;51.976;20.144;2022-11-15T15:54:10;25.20;48.50
36652;DHT22;53334;51.976;20.144;2022-11-15T15:56:44;25.30;48.70
36652;DHT22;53334;51.976;20.144;2022-11-15T15:59:21;25.30;48.90
36652;DHT22;53334;51.976;20.144;2022-11-15T16:01:54;25.30;49.10
36652;DHT22;53334;51.976;20.144;2022-11-15T16:04:28;25.30;49.20
36652;DHT22;53334;51.976;20.144;2022-11-15T16:07:04;25.30;49.30
36652;DHT22;53334;51.976;20.144;2022-11-15T16:09:38;25.30;49.50
36652;DHT22;53334;51.976;20.144;2022-11-15T16:12:31;25.30;49.50
36652;DHT22;53334;51.976;20.144;2022-11-15T16:15:07;25.30;49.60
36652;DHT22;53334;51.976;20.144;2022-11-15T16:17:44;25.40;49.70
36652;DHT22;53334;51.976;20.144;2022-11-15T16:20:30;25.40;49.90
36652;DHT22;53334;51.976;20.144;2022-11-15T16:23:07;25.40;49.90
36652;DHT22;53334;51.976;20.144;2022-11-15T16:25:44;25.40;49.90
36652;DHT22;53334;51.976;20.144;2022-11-15T16:28:20;25.40;49.90
36652;DHT22;53334;51.976;20.144;2022-11-15T16:31:02;25.40;49.80
36652;DHT22;53334;51.976;20.144;2022-11-15T16:33:36;25.50;49.50
36652;DHT22;53334;51.976;20.144;2022-11-15T16:36:19;25.40;49.20
36652;DHT22;53334;51.976;20.144;2022-11-15T16:39:03;25.40;48.90
36652;DHT22;53334;51.976;20.144;2022-11-15T16:41:37;25.40;49.00
36652;DHT22;53334;51.976;20.144;2022-11-15T16:44:11;25.40;49.20
36652;DHT22;53334;51.976;20.144;2022-11-15T16:46:45;25.40;49.20
36652;DHT22;53334;51.976;20.144;2022-11-15T16:49:23;25.40;49.30
36652;DHT22;53334;51.976;20.144;2022-11-15T16:51:56;25.40;49.50
36652;DHT22;53334;51.976;20.144;2022-11-15T16:54:32;25.40;49.70
36652;DHT22;53334;51.976;20.144;2022-11-15T16:57:07;25.40;49.40
36652;DHT22;53334;51.976;20.144;2022-11-15T16:59:41;25.40;49.00
36652;DHT22;53334;51.976;20.144;2022-11-15T17:02:15;25.40;48.90
36652;DHT22;53334;51.976;20.144;2022-11-15T17:04:49;25.30;48.40
36652;DHT22;53334;51.976;20.144;2022-11-15T17:07:24;25.40;48.90
36652;DHT22;53334;51.976;20.144;2022-11-15T17:09:59;25.40;49.10
36652;DHT22;53334;51.976;20.144;2022-11-15T17:12:33;25.40;49.50
36652;DHT22;53334;51.976;20.144;2022-11-15T17:15:11;25.40;49.70
36652;DHT22;53334;51.976;20.144;2022-11-15T17:17:50;25.40;50.00
36652;DHT22;53334;51.976;20.144;2022-11-15T17:20:24;25.30;50.30
36652;DHT22;53334;51.976;20.144;2022-11-15T17:22:58;25.40;50.40
36652;DHT22;53334;51.976;20.144;2022-11-15T17:25:33;25.40;50.50
36652;DHT22;53334;51.976;20.144;2022-11-15T17:28:07;25.40;50.60
36652;DHT22;53334;51.976;20.144;2022-11-15T17:30:41;25.40;50.50
36652;DHT22;53334;51.976;20.144;2022-11-15T17:33:15;25.40;50.50
36652;DHT22;53334;51.976;20.144;2022-11-15T17:35:55;25.40;50.60
36652;DHT22;53334;51.976;20.144;2022-11-15T17:38:29;25.40;50.60
36652;DHT22;53334;51.976;20.144;2022-11-15T17:41:06;25.40;50.50
36652;DHT22;53334;51.976;20.144;2022-11-15T17:43:42;25.40;50.50
36652;DHT22;53334;51.976;20.144;2022-11-15T17:46:19;25.40;50.60